sensor_id;sensor_type;location;lat;lon;timestamp;temperature;humidity
65378;SHT31;51982;51.042;13.806;2023-09-12T00:01:46;22.57;80.55
65378;SHT31;51982;51.042;13.806;2023-09-12T00:04:11;22.57;80.55
65378;SHT31;51982;51.042;13.806;2023-09-12T00:06:37;22.55;80.59
65378;SHT31;51982;51.042;13.806;2023-09-12T00:09:02;22.52;80.63
65378;SHT31;51982;51.042;13.806;2023-09-12T00:11:30;22.49;80.69
65378;SHT31;51982;51.042;13.806;2023-09-12T00:13:56;22.46;80.71
65378;SHT31;51982;51.042;13.806;2023-09-12T00:16:21;22.42;80.76
65378;SHT31;51982;51.042;13.806;2023-09-12T00:18:46;22.39;80.85
65378;SHT31;51982;51.042;13.806;2023-09-12T00:21:11;22.35;80.81
65378;SHT31;51982;51.042;13.806;2023-09-12T00:23:36;22.35;80.85
65378;SHT31;51982;51.042;13.806;2023-09-12T00:26:02;22.33;80.85
65378;SHT31;51982;51.042;13.806;2023-09-12T00:28:27;22.30;80.86
65378;SHT31;51982;51.042;13.806;2023-09-12T00:30:53;22.29;80.90
65378;SHT31;51982;51.042;13.806;2023-09-12T00:33:18;22.26;80.90
65378;SHT31;51982;51.042;13.806;2023-09-12T00:35:44;22.23;80.95
65378;SHT31;51982;51.042;13.806;2023-09-12T00:38:10;22.22;80.93
65378;SHT31;51982;51.042;13.806;2023-09-12T00:40:35;22.19;80.91
65378;SHT31;51982;51.042;13.806;2023-09-12T00:43:00;22.16;80.97
65378;SHT31;51982;51.042;13.806;2023-09-12T00:45:26;22.15;80.99
65378;SHT31;51982;51.042;13.806;2023-09-12T00:47:51;22.13;80.94
65378;SHT31;51982;51.042;13.806;2023-09-12T00:50:19;22.13;80.95
65378;SHT31;51982;51.042;13.806;2023-09-12T00:52:46;22.09;81.00
65378;SHT31;51982;51.042;13.806;2023-09-12T00:55:11;22.10;80.99
65378;SHT31;51982;51.042;13.806;2023-09-12T00:57:37;22.08;80.97
65378;SHT31;51982;51.042;13.806;2023-09-12T01:00:03;22.02;80.98
65378;SHT31;51982;51.042;13.806;2023-09-12T01:02:45;22.03;81.01
65378;SHT31;51982;51.042;13.806;2023-09-12T02:09:03;21.44;81.36
65378;SHT31;51982;51.042;13.806;2023-09-12T02:11:29;21.44;81.37
65378;SHT31;51982;51.042;13.806;2023-09-12T02:13:54;21.44;81.38
65378;SHT31;51982;51.042;13.806;2023-09-12T02:16:19;21.40;81.41
65378;SHT31;51982;51.042;13.806;2023-09-12T02:18:44;21.37;81.46
65378;SHT31;51982;51.042;13.806;2023-09-12T02:21:10;21.37;81.43
65378;SHT31;51982;51.042;13.806;2023-09-12T02:23:35;21.35;81.41
65378;SHT31;51982;51.042;13.806;2023-09-12T02:26:00;21.31;81.43
65378;SHT31;51982;51.042;13.806;2023-09-12T02:28:25;21.30;81.43
65378;SHT31;51982;51.042;13.806;2023-09-12T02:30:51;21.27;81.46
65378;SHT31;51982;51.042;13.806;2023-09-12T02:33:16;21.26;81.47
65378;SHT31;51982;51.042;13.806;2023-09-12T02:35:41;21.27;81.44
65378;SHT31;51982;51.042;13.806;2023-09-12T02:38:07;21.24;81.41
65378;SHT31;51982;51.042;13.806;2023-09-12T02:40:32;21.23;81.44
65378;SHT31;51982;51.042;13.806;2023-09-12T02:42:57;21.17;81.49
65378;SHT31;51982;51.042;13.806;2023-09-12T02:45:22;21.17;81.55
65378;SHT31;51982;51.042;13.806;2023-09-12T02:47:48;21.14;81.55
65378;SHT31;51982;51.042;13.806;2023-09-12T02:50:13;21.10;81.56
65378;SHT31;51982;51.042;13.806;2023-09-12T02:52:38;21.07;81.59
65378;SHT31;51982;51.042;13.806;2023-09-12T02:55:04;21.04;81.58
65378;SHT31;51982;51.042;13.806;2023-09-12T02:57:29;21.06;81.56
65378;SHT31;51982;51.042;13.806;2023-09-12T02:59:54;21.03;81.65
65378;SHT31;51982;51.042;13.806;2023-09-12T03:02:20;20.99;81.67
65378;SHT31;51982;51.042;13.806;2023-09-12T03:04:45;20.99;81.69
65378;SHT31;51982;51.042;13.806;2023-09-12T03:07:10;21.01;81.64
65378;SHT31;51982;51.042;13.806;2023-09-12T03:09:35;20.97;81.63
65378;SHT31;51982;51.042;13.806;2023-09-12T03:12:03;20.96;81.62
65378;SHT31;51982;51.042;13.806;2023-09-12T03:14:28;20.92;81.63
65378;SHT31;51982;51.042;13.806;2023-09-12T03:16:54;20.90;81.64
65378;SHT31;51982;51.042;13.806;2023-09-12T03:19:19;20.90;81.65
65378;SHT31;51982;51.042;13.806;2023-09-12T03:21:44;20.87;81.63
65378;SHT31;51982;51.042;13.806;2023-09-12T03:24:10;20.86;81.61
65378;SHT31;51982;51.042;13.806;2023-09-12T03:26:36;20.83;81.60
65378;SHT31;51982;51.042;13.806;2023-09-12T03:29:02;20.84;81.57
65378;SHT31;51982;51.042;13.806;2023-09-12T03:31:28;20.84;81.56
65378;SHT31;51982;51.042;13.806;2023-09-12T03:33:54;20.84;81.53
65378;SHT31;51982;51.042;13.806;2023-09-12T03:36:19;20.82;81.56
65378;SHT31;51982;51.042;13.806;2023-09-12T03:38:44;20.76;81.60
65378;SHT31;51982;51.042;13.806;2023-09-12T03:41:09;20.75;81.64
65378;SHT31;51982;51.042;13.806;2023-09-12T03:43:36;20.72;81.60
65378;SHT31;51982;51.042;13.806;2023-09-12T03:46:01;20.73;81.63
65378;SHT31;51982;51.042;13.806;2023-09-12T03:48:28;20.70;81.60
65378;SHT31;51982;51.042;13.806;2023-09-12T03:50:55;20.70;81.67
65378;SHT31;51982;51.042;13.806;2023-09-12T03:53:20;20.65;81.61
65378;SHT31;51982;51.042;13.806;2023-09-12T03:55:46;20.65;81.61
65378;SHT31;51982;51.042;13.806;2023-09-12T03:58:11;20.62;81.63
65378;SHT31;51982;51.042;13.806;2023-09-12T04:00:36;20.59;81.65
65378;SHT31;51982;51.042;13.806;2023-09-12T04:03:02;20.57;81.69
65378;SHT31;51982;51.042;13.806;2023-09-12T04:05:27;20.50;81.74
65378;SHT31;51982;51.042;13.806;2023-09-12T04:07:52;20.53;81.77
65378;SHT31;51982;51.042;13.806;2023-09-12T04:10:19;20.53;81.70
65378;SHT31;51982;51.042;13.806;2023-09-12T04:12:44;20.55;81.68
65378;SHT31;51982;51.042;13.806;2023-09-12T04:15:10;20.52;81.70
65378;SHT31;51982;51.042;13.806;2023-09-12T04:17:35;20.45;81.71
65378;SHT31;51982;51.042;13.806;2023-09-12T04:20:00;20.39;81.72
65378;SHT31;51982;51.042;13.806;2023-09-12T04:22:25;20.40;81.78
65378;SHT31;51982;51.042;13.806;2023-09-12T04:24:51;20.38;81.74
65378;SHT31;51982;51.042;13.806;2023-09-12T04:27:16;20.35;81.78
65378;SHT31;51982;51.042;13.806;2023-09-12T04:29:41;20.35;81.76
65378;SHT31;51982;51.042;13.806;2023-09-12T04:32:07;20.32;81.78
65378;SHT31;51982;51.042;13.806;2023-09-12T04:34:32;20.30;81.77
65378;SHT31;51982;51.042;13.806;2023-09-12T04:36:57;20.28;81.77
65378;SHT31;51982;51.042;13.806;2023-09-12T04:39:23;20.29;81.81
65378;SHT31;51982;51.042;13.806;2023-09-12T04:41:48;20.25;81.86
65378;SHT31;51982;51.042;13.806;2023-09-12T04:44:13;20.25;81.78
65378;SHT31;51982;51.042;13.806;2023-09-12T04:46:38;20.26;81.82
65378;SHT31;51982;51.042;13.806;2023-09-12T04:49:04;20.26;81.78
65378;SHT31;51982;51.042;13.806;2023-09-12T04:51:29;20.24;81.80
65378;SHT31;51982;51.042;13.806;2023-09-12T04:53:54;20.24;81.78
65378;SHT31;51982;51.042;13.806;2023-09-12T04:56:20;20.22;81.76
65378;SHT31;51982;51.042;13.806;2023-09-12T04:58:45;20.21;81.71
65378;SHT31;51982;51.042;13.806;2023-09-12T05:01:10;20.22;81.77
65378;SHT31;51982;51.042;13.806;2023-09-12T05:03:35;20.21;81.76
65378;SHT31;51982;51.042;13.806;2023-09-12T05:06:01;20.18;81.79
65378;SHT31;51982;51.042;13.806;2023-09-12T05:08:26;20.19;81.81
65378;SHT31;51982;51.042;13.806;2023-09-12T05:10:51;20.21;81.78
65378;SHT31;51982;51.042;13.806;2023-09-12T05:13:17;20.18;81.79
65378;SHT31;51982;51.042;13.806;2023-09-12T05:15:43;20.15;81.86
65378;SHT31;51982;51.042;13.806;2023-09-12T05:18:08;20.14;81.84
65378;SHT31;51982;51.042;13.806;2023-09-12T05:20:34;20.15;81.88
65378;SHT31;51982;51.042;13.806;2023-09-12T05:22:59;20.21;81.84
65378;SHT31;51982;51.042;13.806;2023-09-12T05:25:25;20.22;81.84
65378;SHT31;51982;51.042;13.806;2023-09-12T05:27:52;20.22;81.79
65378;SHT31;51982;51.042;13.806;2023-09-12T05:30:17;20.21;81.84
65378;SHT31;51982;51.042;13.806;2023-09-12T05:32:42;20.17;81.87
65378;SHT31;51982;51.042;13.806;2023-09-12T05:35:07;20.21;81.87
65378;SHT31;51982;51.042;13.806;2023-09-12T05:37:33;20.18;81.93
65378;SHT31;51982;51.042;13.806;2023-09-12T05:39:58;20.18;81.91
65378;SHT31;51982;51.042;13.806;2023-09-12T05:42:23;20.19;81.87
65378;SHT31;51982;51.042;13.806;2023-09-12T05:44:49;20.22;81.87
65378;SHT31;51982;51.042;13.806;2023-09-12T05:47:22;20.22;81.87
65378;SHT31;51982;51.042;13.806;2023-09-12T05:49:47;20.17;81.87
65378;SHT31;51982;51.042;13.806;2023-09-12T05:52:12;20.18;81.95
65378;SHT31;51982;51.042;13.806;2023-09-12T05:54:38;20.22;81.90
65378;SHT31;51982;51.042;13.806;2023-09-12T05:57:04;20.25;81.95
65378;SHT31;51982;51.042;13.806;2023-09-12T05:59:30;20.25;81.98
65378;SHT31;51982;51.042;13.806;2023-09-12T06:01:55;20.24;81.96
65378;SHT31;51982;51.042;13.806;2023-09-12T06:04:21;20.21;82.03
65378;SHT31;51982;51.042;13.806;2023-09-12T06:06:46;20.28;82.08
65378;SHT31;51982;51.042;13.806;2023-09-12T06:09:12;20.30;82.06
65378;SHT31;51982;51.042;13.806;2023-09-12T06:11:37;20.29;82.10
65378;SHT31;51982;51.042;13.806;2023-09-12T06:14:02;20.35;82.09
65378;SHT31;51982;51.042;13.806;2023-09-12T06:16:28;20.38;82.06
65378;SHT31;51982;51.042;13.806;2023-09-12T06:18:53;20.40;82.02
65378;SHT31;51982;51.042;13.806;2023-09-12T06:21:19;20.48;82.02
65378;SHT31;51982;51.042;13.806;2023-09-12T06:23:57;20.56;81.95
65378;SHT31;51982;51.042;13.806;2023-09-12T06:26:31;20.65;82.05
65378;SHT31;51982;51.042;13.806;2023-09-12T06:28:56;20.69;81.94
65378;SHT31;51982;51.042;13.806;2023-09-12T06:31:21;20.76;81.89
65378;SHT31;51982;51.042;13.806;2023-09-12T06:33:47;20.80;81.80
65378;SHT31;51982;51.042;13.806;2023-09-12T06:36:12;20.84;81.77
65378;SHT31;51982;51.042;13.806;2023-09-12T06:38:37;20.86;81.68
65378;SHT31;51982;51.042;13.806;2023-09-12T06:41:02;20.87;81.68
65378;SHT31;51982;51.042;13.806;2023-09-12T06:43:30;20.93;81.59
65378;SHT31;51982;51.042;13.806;2023-09-12T06:45:55;20.94;81.61
65378;SHT31;51982;51.042;13.806;2023-09-12T06:48:21;20.96;81.64
65378;SHT31;51982;51.042;13.806;2023-09-12T06:50:46;20.99;81.61
65378;SHT31;51982;51.042;13.806;2023-09-12T06:53:11;21.01;81.59
65378;SHT31;51982;51.042;13.806;2023-09-12T06:55:36;21.01;81.64
65378;SHT31;51982;51.042;13.806;2023-09-12T06:58:02;21.04;81.65
65378;SHT31;51982;51.042;13.806;2023-09-12T07:00:28;21.10;81.58
65378;SHT31;51982;51.042;13.806;2023-09-12T07:02:54;21.10;81.69
65378;SHT31;51982;51.042;13.806;2023-09-12T07:05:19;21.11;81.64
65378;SHT31;51982;51.042;13.806;2023-09-12T07:07:44;21.14;81.71
65378;SHT31;51982;51.042;13.806;2023-09-12T07:10:09;21.15;81.70
65378;SHT31;51982;51.042;13.806;2023-09-12T07:12:35;21.20;81.80
65378;SHT31;51982;51.042;13.806;2023-09-12T07:15:00;21.20;81.78
65378;SHT31;51982;51.042;13.806;2023-09-12T07:17:27;21.23;81.70
65378;SHT31;51982;51.042;13.806;2023-09-12T07:19:52;21.26;81.85
65378;SHT31;51982;51.042;13.806;2023-09-12T07:22:18;21.28;81.91
65378;SHT31;51982;51.042;13.806;2023-09-12T07:24:43;21.33;81.81
65378;SHT31;51982;51.042;13.806;2023-09-12T07:27:08;21.34;81.77
65378;SHT31;51982;51.042;13.806;2023-09-12T07:29:33;21.41;81.75
65378;SHT31;51982;51.042;13.806;2023-09-12T07:31:59;21.44;81.73
65378;SHT31;51982;51.042;13.806;2023-09-12T07:34:24;21.47;81.68
65378;SHT31;51982;51.042;13.806;2023-09-12T07:36:50;21.51;81.62
65378;SHT31;51982;51.042;13.806;2023-09-12T07:39:17;21.54;81.62
65378;SHT31;51982;51.042;13.806;2023-09-12T07:41:42;21.57;81.65
65378;SHT31;51982;51.042;13.806;2023-09-12T07:44:07;21.59;81.68
65378;SHT31;51982;51.042;13.806;2023-09-12T07:46:37;21.65;81.70
65378;SHT31;51982;51.042;13.806;2023-09-12T07:49:03;21.66;81.74
65378;SHT31;51982;51.042;13.806;2023-09-12T07:51:28;21.72;81.76
65378;SHT31;51982;51.042;13.806;2023-09-12T07:53:53;21.72;81.71
65378;SHT31;51982;51.042;13.806;2023-09-12T07:56:19;21.81;81.73
65378;SHT31;51982;51.042;13.806;2023-09-12T07:58:44;21.81;81.78
65378;SHT31;51982;51.042;13.806;2023-09-12T08:01:09;21.84;81.54
65378;SHT31;51982;51.042;13.806;2023-09-12T08:03:36;21.86;81.52
65378;SHT31;51982;51.042;13.806;2023-09-12T08:06:02;21.94;81.57
65378;SHT31;51982;51.042;13.806;2023-09-12T08:08:28;21.95;81.51
65378;SHT31;51982;51.042;13.806;2023-09-12T08:10:53;22.01;81.49
65378;SHT31;51982;51.042;13.806;2023-09-12T08:13:19;21.99;81.47
65378;SHT31;51982;51.042;13.806;2023-09-12T08:15:44;22.03;81.48
65378;SHT31;51982;51.042;13.806;2023-09-12T08:18:10;22.05;81.47
65378;SHT31;51982;51.042;13.806;2023-09-12T08:20:35;22.09;81.45
65378;SHT31;51982;51.042;13.806;2023-09-12T08:23:00;22.13;81.44
65378;SHT31;51982;51.042;13.806;2023-09-12T08:25:25;22.17;81.16
65378;SHT31;51982;51.042;13.806;2023-09-12T08:27:52;22.20;81.18
65378;SHT31;51982;51.042;13.806;2023-09-12T08:30:17;22.26;81.19
65378;SHT31;51982;51.042;13.806;2023-09-12T08:32:42;22.29;81.13
65378;SHT31;51982;51.042;13.806;2023-09-12T08:35:11;22.33;80.95
65378;SHT31;51982;51.042;13.806;2023-09-12T08:37:38;22.39;80.85
65378;SHT31;51982;51.042;13.806;2023-09-12T08:40:05;22.40;80.69
65378;SHT31;51982;51.042;13.806;2023-09-12T08:42:33;22.43;80.23
65378;SHT31;51982;51.042;13.806;2023-09-12T08:45:03;22.50;80.27
65378;SHT31;51982;51.042;13.806;2023-09-12T08:47:30;22.53;80.23
65378;SHT31;51982;51.042;13.806;2023-09-12T08:49:56;22.55;79.74
65378;SHT31;51982;51.042;13.806;2023-09-12T08:52:22;22.55;79.88
65378;SHT31;51982;51.042;13.806;2023-09-12T08:54:47;22.53;79.31
65378;SHT31;51982;51.042;13.806;2023-09-12T08:57:12;22.56;78.77
65378;SHT31;51982;51.042;13.806;2023-09-12T08:59:39;22.60;78.75
65378;SHT31;51982;51.042;13.806;2023-09-12T09:02:07;22.63;78.84
65378;SHT31;51982;51.042;13.806;2023-09-12T09:04:34;22.66;78.60
65378;SHT31;51982;51.042;13.806;2023-09-12T09:07:00;22.74;77.99
65378;SHT31;51982;51.042;13.806;2023-09-12T09:09:26;22.81;78.53
65378;SHT31;51982;51.042;13.806;2023-09-12T09:11:55;22.84;78.07
65378;SHT31;51982;51.042;13.806;2023-09-12T09:14:20;22.91;77.93
65378;SHT31;51982;51.042;13.806;2023-09-12T09:16:46;22.91;78.11
65378;SHT31;51982;51.042;13.806;2023-09-12T09:19:11;22.93;77.45
65378;SHT31;51982;51.042;13.806;2023-09-12T09:21:38;23.00;77.06
65378;SHT31;51982;51.042;13.806;2023-09-12T09:24:10;23.07;76.84
65378;SHT31;51982;51.042;13.806;2023-09-12T09:29:13;23.24;76.71
65378;SHT31;51982;51.042;13.806;2023-09-12T09:31:43;23.32;76.81
65378;SHT31;51982;51.042;13.806;2023-09-12T09:34:16;23.35;75.69
65378;SHT31;51982;51.042;13.806;2023-09-12T09:36:51;23.44;75.42
65378;SHT31;51982;51.042;13.806;2023-09-12T09:39:22;23.48;75.50
65378;SHT31;51982;51.042;13.806;2023-09-12T09:41:49;23.49;75.12
65378;SHT31;51982;51.042;13.806;2023-09-12T09:44:14;23.52;74.66
65378;SHT31;51982;51.042;13.806;2023-09-12T09:46:43;23.58;75.84
65378;SHT31;51982;51.042;13.806;2023-09-12T09:49:15;23.63;76.12
65378;SHT31;51982;51.042;13.806;2023-09-12T09:51:42;23.68;74.83
65378;SHT31;51982;51.042;13.806;2023-09-12T09:54:11;23.72;75.59
65378;SHT31;51982;51.042;13.806;2023-09-12T09:56:47;23.75;74.04
65378;SHT31;51982;51.042;13.806;2023-09-12T09:59:21;23.88;73.01
65378;SHT31;51982;51.042;13.806;2023-09-12T10:01:48;23.92;73.98
65378;SHT31;51982;51.042;13.806;2023-09-12T10:04:14;23.95;74.78
65378;SHT31;51982;51.042;13.806;2023-09-12T10:06:43;24.00;74.89
65378;SHT31;51982;51.042;13.806;2023-09-12T10:09:11;23.99;74.67
65378;SHT31;51982;51.042;13.806;2023-09-12T10:11:38;24.06;73.91
65378;SHT31;51982;51.042;13.806;2023-09-12T10:14:05;24.12;73.90
65378;SHT31;51982;51.042;13.806;2023-09-12T10:16:39;24.16;73.49
65378;SHT31;51982;51.042;13.806;2023-09-12T10:19:13;24.17;73.10
65378;SHT31;51982;51.042;13.806;2023-09-12T10:21:46;24.24;71.62
65378;SHT31;51982;51.042;13.806;2023-09-12T10:24:14;24.30;72.29
65378;SHT31;51982;51.042;13.806;2023-09-12T10:26:41;24.37;72.35
65378;SHT31;51982;51.042;13.806;2023-09-12T10:29:09;24.43;72.43
65378;SHT31;51982;51.042;13.806;2023-09-12T10:31:35;24.51;72.31
65378;SHT31;51982;51.042;13.806;2023-09-12T10:34:02;24.56;72.94
65378;SHT31;51982;51.042;13.806;2023-09-12T10:36:29;24.59;72.72
65378;SHT31;51982;51.042;13.806;2023-09-12T10:38:54;24.60;72.92
65378;SHT31;51982;51.042;13.806;2023-09-12T10:41:21;24.65;72.97
65378;SHT31;51982;51.042;13.806;2023-09-12T10:43:47;24.64;72.92
65378;SHT31;51982;51.042;13.806;2023-09-12T10:46:15;24.64;72.22
65378;SHT31;51982;51.042;13.806;2023-09-12T10:48:41;24.67;71.79
65378;SHT31;51982;51.042;13.806;2023-09-12T10:51:07;24.72;72.51
65378;SHT31;51982;51.042;13.806;2023-09-12T10:53:33;24.75;72.07
65378;SHT31;51982;51.042;13.806;2023-09-12T10:56:20;24.81;71.19
65378;SHT31;51982;51.042;13.806;2023-09-12T11:01:30;24.91;71.53
65378;SHT31;51982;51.042;13.806;2023-09-12T11:03:55;24.96;71.58
65378;SHT31;51982;51.042;13.806;2023-09-12T11:06:22;24.99;70.80
65378;SHT31;51982;51.042;13.806;2023-09-12T11:11:42;25.22;70.77
65378;SHT31;51982;51.042;13.806;2023-09-12T11:14:08;25.23;70.73
65378;SHT31;51982;51.042;13.806;2023-09-12T11:16:34;25.31;70.10
65378;SHT31;51982;51.042;13.806;2023-09-12T11:21:46;25.47;69.49
65378;SHT31;51982;51.042;13.806;2023-09-12T11:24:13;25.58;68.96
65378;SHT31;51982;51.042;13.806;2023-09-12T11:26:57;25.58;68.92
65378;SHT31;51982;51.042;13.806;2023-09-12T11:29:38;25.58;69.21
65378;SHT31;51982;51.042;13.806;2023-09-12T11:32:04;25.55;69.84
65378;SHT31;51982;51.042;13.806;2023-09-12T11:34:36;25.52;70.22
65378;SHT31;51982;51.042;13.806;2023-09-12T11:37:02;25.62;69.46
65378;SHT31;51982;51.042;13.806;2023-09-12T11:39:31;25.62;70.17
65378;SHT31;51982;51.042;13.806;2023-09-12T11:42:00;25.62;71.56
65378;SHT31;51982;51.042;13.806;2023-09-12T11:44:26;25.62;71.50
65378;SHT31;51982;51.042;13.806;2023-09-12T11:46:53;25.63;71.61
65378;SHT31;51982;51.042;13.806;2023-09-12T11:49:19;25.65;71.93
65378;SHT31;51982;51.042;13.806;2023-09-12T11:51:53;25.67;71.10
65378;SHT31;51982;51.042;13.806;2023-09-12T11:54:25;25.70;71.36
65378;SHT31;51982;51.042;13.806;2023-09-12T11:56:52;25.69;72.27
65378;SHT31;51982;51.042;13.806;2023-09-12T11:59:25;25.69;72.47
65378;SHT31;51982;51.042;13.806;2023-09-12T12:01:52;25.66;71.99
65378;SHT31;51982;51.042;13.806;2023-09-12T12:04:20;25.62;72.50
65378;SHT31;51982;51.042;13.806;2023-09-12T12:06:47;25.61;73.29
65378;SHT31;51982;51.042;13.806;2023-09-12T12:09:12;25.62;72.47
65378;SHT31;51982;51.042;13.806;2023-09-12T12:11:39;25.67;72.06
65378;SHT31;51982;51.042;13.806;2023-09-12T12:16:36;25.74;72.46
65378;SHT31;51982;51.042;13.806;2023-09-12T12:19:01;25.74;72.35
65378;SHT31;51982;51.042;13.806;2023-09-12T12:21:26;25.83;71.59
65378;SHT31;51982;51.042;13.806;2023-09-12T12:24:00;25.82;72.60
65378;SHT31;51982;51.042;13.806;2023-09-12T12:26:25;25.80;72.42
65378;SHT31;51982;51.042;13.806;2023-09-12T12:28:52;25.84;71.58
65378;SHT31;51982;51.042;13.806;2023-09-12T12:31:17;25.86;71.76
65378;SHT31;51982;51.042;13.806;2023-09-12T12:34:05;25.83;72.43
65378;SHT31;51982;51.042;13.806;2023-09-12T12:36:31;25.82;71.63
65378;SHT31;51982;51.042;13.806;2023-09-12T12:38:56;25.90;71.11
65378;SHT31;51982;51.042;13.806;2023-09-12T12:41:23;25.93;71.59
65378;SHT31;51982;51.042;13.806;2023-09-12T12:43:50;25.94;71.23
65378;SHT31;51982;51.042;13.806;2023-09-12T12:46:20;25.94;71.15
65378;SHT31;51982;51.042;13.806;2023-09-12T12:48:47;25.93;70.93
65378;SHT31;51982;51.042;13.806;2023-09-12T12:51:23;25.89;70.68
65378;SHT31;51982;51.042;13.806;2023-09-12T12:53:50;25.93;71.03
65378;SHT31;51982;51.042;13.806;2023-09-12T12:56:18;25.93;69.64
65378;SHT31;51982;51.042;13.806;2023-09-12T12:58:48;25.97;69.95
65378;SHT31;51982;51.042;13.806;2023-09-12T13:01:14;25.98;69.34
65378;SHT31;51982;51.042;13.806;2023-09-12T13:03:40;26.06;70.24
65378;SHT31;51982;51.042;13.806;2023-09-12T13:06:05;26.04;69.96
65378;SHT31;51982;51.042;13.806;2023-09-12T13:08:33;26.10;69.45
65378;SHT31;51982;51.042;13.806;2023-09-12T13:10:59;26.16;68.49
65378;SHT31;51982;51.042;13.806;2023-09-12T13:13:25;26.21;68.04
65378;SHT31;51982;51.042;13.806;2023-09-12T13:15:51;26.24;66.85
65378;SHT31;51982;51.042;13.806;2023-09-12T13:18:17;26.24;67.87
65378;SHT31;51982;51.042;13.806;2023-09-12T13:20:43;26.26;66.64
65378;SHT31;51982;51.042;13.806;2023-09-12T13:23:08;26.38;65.30
65378;SHT31;51982;51.042;13.806;2023-09-12T13:25:33;26.45;65.31
65378;SHT31;51982;51.042;13.806;2023-09-12T13:27:58;26.59;64.23
65378;SHT31;51982;51.042;13.806;2023-09-12T13:30:24;26.52;66.50
65378;SHT31;51982;51.042;13.806;2023-09-12T13:32:49;26.47;66.68
65378;SHT31;51982;51.042;13.806;2023-09-12T13:35:14;26.47;66.23
65378;SHT31;51982;51.042;13.806;2023-09-12T13:37:40;26.67;64.60
65378;SHT31;51982;51.042;13.806;2023-09-12T13:40:05;26.77;64.68
65378;SHT31;51982;51.042;13.806;2023-09-12T13:42:33;26.79;65.22
65378;SHT31;51982;51.042;13.806;2023-09-12T13:44:59;26.72;66.33
65378;SHT31;51982;51.042;13.806;2023-09-12T13:47:24;26.67;66.25
65378;SHT31;51982;51.042;13.806;2023-09-12T13:49:50;26.69;65.54
65378;SHT31;51982;51.042;13.806;2023-09-12T13:52:21;26.78;65.66
65378;SHT31;51982;51.042;13.806;2023-09-12T13:54:46;26.72;66.60
65378;SHT31;51982;51.042;13.806;2023-09-12T13:57:12;26.65;67.31
65378;SHT31;51982;51.042;13.806;2023-09-12T13:59:38;26.61;67.55
65378;SHT31;51982;51.042;13.806;2023-09-12T14:02:03;26.58;67.60
65378;SHT31;51982;51.042;13.806;2023-09-12T14:04:29;26.54;67.84
65378;SHT31;51982;51.042;13.806;2023-09-12T14:06:54;26.55;67.01
65378;SHT31;51982;51.042;13.806;2023-09-12T14:09:19;26.55;67.64
65378;SHT31;51982;51.042;13.806;2023-09-12T14:11:44;26.54;67.46
65378;SHT31;51982;51.042;13.806;2023-09-12T14:14:11;26.49;67.65
65378;SHT31;51982;51.042;13.806;2023-09-12T14:16:37;26.51;67.72
65378;SHT31;51982;51.042;13.806;2023-09-12T14:19:02;26.49;67.74
65378;SHT31;51982;51.042;13.806;2023-09-12T14:21:27;26.54;66.13
65378;SHT31;51982;51.042;13.806;2023-09-12T14:23:52;26.57;65.93
65378;SHT31;51982;51.042;13.806;2023-09-12T14:26:17;26.68;65.16
65378;SHT31;51982;51.042;13.806;2023-09-12T14:28:43;26.69;65.40
65378;SHT31;51982;51.042;13.806;2023-09-12T14:31:08;26.69;63.78
65378;SHT31;51982;51.042;13.806;2023-09-12T14:33:39;26.75;62.84
65378;SHT31;51982;51.042;13.806;2023-09-12T14:36:04;26.85;62.30
65378;SHT31;51982;51.042;13.806;2023-09-12T14:38:29;26.81;63.83
65378;SHT31;51982;51.042;13.806;2023-09-12T14:40:55;26.79;64.82
65378;SHT31;51982;51.042;13.806;2023-09-12T14:43:20;26.77;64.41
65378;SHT31;51982;51.042;13.806;2023-09-12T14:45:46;26.79;63.11
65378;SHT31;51982;51.042;13.806;2023-09-12T14:48:11;26.78;64.05
65378;SHT31;51982;51.042;13.806;2023-09-12T14:50:37;26.82;63.92
65378;SHT31;51982;51.042;13.806;2023-09-12T14:53:02;26.82;64.14
65378;SHT31;51982;51.042;13.806;2023-09-12T14:55:27;26.78;64.79
65378;SHT31;51982;51.042;13.806;2023-09-12T14:57:53;26.78;64.95
65378;SHT31;51982;51.042;13.806;2023-09-12T15:00:21;26.77;65.39
65378;SHT31;51982;51.042;13.806;2023-09-12T15:02:47;26.72;65.95
65378;SHT31;51982;51.042;13.806;2023-09-12T15:05:12;26.69;66.01
65378;SHT31;51982;51.042;13.806;2023-09-12T15:07:38;26.72;66.07
65378;SHT31;51982;51.042;13.806;2023-09-12T15:10:04;26.69;65.63
65378;SHT31;51982;51.042;13.806;2023-09-12T15:12:30;26.74;64.20
65378;SHT31;51982;51.042;13.806;2023-09-12T15:14:55;26.81;63.75
65378;SHT31;51982;51.042;13.806;2023-09-12T15:17:20;26.92;62.43
65378;SHT31;51982;51.042;13.806;2023-09-12T15:19:46;26.87;64.20
65378;SHT31;51982;51.042;13.806;2023-09-12T15:22:12;26.85;64.31
65378;SHT31;51982;51.042;13.806;2023-09-12T15:24:40;26.85;64.74
65378;SHT31;51982;51.042;13.806;2023-09-12T15:27:05;26.81;64.36
65378;SHT31;51982;51.042;13.806;2023-09-12T15:29:30;26.84;65.37
65378;SHT31;51982;51.042;13.806;2023-09-12T15:31:56;26.85;65.12
65378;SHT31;51982;51.042;13.806;2023-09-12T15:34:21;26.84;64.64
65378;SHT31;51982;51.042;13.806;2023-09-12T15:36:47;26.87;64.92
65378;SHT31;51982;51.042;13.806;2023-09-12T15:39:13;26.87;65.18
65378;SHT31;51982;51.042;13.806;2023-09-12T15:41:38;26.87;64.81
65378;SHT31;51982;51.042;13.806;2023-09-12T15:44:04;26.95;63.89
65378;SHT31;51982;51.042;13.806;2023-09-12T15:46:30;27.00;63.82
65378;SHT31;51982;51.042;13.806;2023-09-12T15:48:55;27.06;64.31
65378;SHT31;51982;51.042;13.806;2023-09-12T15:51:21;27.19;63.44
65378;SHT31;51982;51.042;13.806;2023-09-12T15:53:47;27.25;63.42
65378;SHT31;51982;51.042;13.806;2023-09-12T15:56:12;27.29;63.64
65378;SHT31;51982;51.042;13.806;2023-09-12T15:58:37;27.22;64.04
65378;SHT31;51982;51.042;13.806;2023-09-12T16:01:02;27.18;64.80
65378;SHT31;51982;51.042;13.806;2023-09-12T16:03:29;27.09;64.94
65378;SHT31;51982;51.042;13.806;2023-09-12T16:05:55;27.13;65.16
65378;SHT31;51982;51.042;13.806;2023-09-12T16:08:20;27.09;65.87
65378;SHT31;51982;51.042;13.806;2023-09-12T16:10:46;27.05;65.84
65378;SHT31;51982;51.042;13.806;2023-09-12T16:13:11;27.02;66.53
65378;SHT31;51982;51.042;13.806;2023-09-12T16:15:36;27.12;64.68
65378;SHT31;51982;51.042;13.806;2023-09-12T16:18:02;27.08;65.69
65378;SHT31;51982;51.042;13.806;2023-09-12T16:20:27;27.13;65.00
65378;SHT31;51982;51.042;13.806;2023-09-12T16:22:52;27.20;64.50
65378;SHT31;51982;51.042;13.806;2023-09-12T16:25:18;27.28;64.28
65378;SHT31;51982;51.042;13.806;2023-09-12T16:27:43;27.26;64.95